Time;durP1;ratioP1;P1;durP2;ratioP2;P2;SDS_P1;SDS_P2;PMS_P1;PMS_P2;Temp;Humidity;BMP_temperature;BMP_pressure;BME280_temperature;BME280_humidity;BME280_pressure;Samples;Min_cycle;Max_cycle;Signal;HPM_P1;HPM_P2
2023/09/15 00:00:17;;;;;;;7.10;4.03;;;;;;;10.06;100.00;101753.03;5054826;28;20342;-67
2023/09/15 00:02:43;;;;;;;5.37;3.83;;;;;;;9.96;100.00;101747.69;5054593;28;20500;-66
2023/09/15 00:05:10;;;;;;;4.50;3.73;;;;;;;9.85;100.00;101737.16;5056515;28;20048;-67
2023/09/15 00:07:36;;;;;;;6.00;4.33;;;;;;;9.99;100.00;101766.03;5059658;28;20555;-68
2023/09/15 00:10:02;;;;;;;4.30;3.90;;;;;;;9.84;100.00;101754.94;5058495;28;20053;-66
2023/09/15 00:12:28;;;;;;;5.70;4.33;;;;;;;9.92;100.00;101764.88;5057413;28;20060;-67
2023/09/15 00:14:54;;;;;;;7.20;6.50;;;;;;;9.88;100.00;101774.13;5054270;28;20441;-67
2023/09/15 00:17:19;;;;;;;10.03;8.93;;;;;;;9.83;100.00;101771.88;5054253;28;20025;-67
2023/09/15 00:19:46;;;;;;;17.40;15.60;;;;;;;9.80;100.00;101771.25;5054018;28;20083;-66
2023/09/15 00:22:11;;;;;;;20.63;18.57;;;;;;;9.77;100.00;101777.69;5054761;28;20114;-66
2023/09/15 00:24:36;;;;;;;27.80;21.03;;;;;;;9.66;100.00;101758.31;5058260;28;20033;-66
2023/09/15 00:27:02;;;;;;;25.00;22.60;;;;;;;9.75;100.00;101784.13;5057886;28;20469;-68
2023/09/15 00:29:27;;;;;;;25.53;23.13;;;;;;;9.62;100.00;101763.91;5056806;28;20529;-66
2023/09/15 00:31:55;;;;;;;23.40;21.10;;;;;;;9.55;100.00;101752.13;5059461;28;20048;-66
2023/09/15 00:34:20;;;;;;;24.77;22.37;;;;;;;9.58;100.00;101762.50;5059985;28;20120;-65
2023/09/15 00:36:46;;;;;;;22.53;18.63;;;;;;;9.50;100.00;101748.16;5055257;28;20521;-67
2023/09/15 00:39:12;;;;;;;23.77;21.37;;;;;;;9.62;100.00;101758.59;5053542;28;20162;-66
2023/09/15 00:41:37;;;;;;;24.37;21.80;;;;;;;9.57;100.00;101760.81;5053914;28;20111;-67
2023/09/15 00:44:03;;;;;;;14.47;13.07;;;;;;;9.57;100.00;101763.47;5052603;28;20033;-70
2023/09/15 00:46:30;;;;;;;18.70;15.50;;;;;;;9.49;100.00;101760.59;5053470;28;20071;-66
2023/09/15 00:48:57;;;;;;;14.97;13.30;;;;;;;9.41;100.00;101749.78;5052191;28;20479;-67
2023/09/15 00:51:24;;;;;;;16.43;13.83;;;;;;;9.42;100.00;101762.09;5053533;28;20024;-67
2023/09/15 00:53:50;;;;;;;14.77;12.20;;;;;;;9.52;100.00;101794.91;5053700;28;20031;-66
2023/09/15 00:56:17;;;;;;;16.73;14.93;;;;;;;9.51;100.00;101798.53;5053591;28;20017;-66
2023/09/15 00:58:44;;;;;;;25.90;23.23;;;;;;;9.19;100.00;101748.09;5053482;28;20116;-66
2023/09/15 01:01:10;;;;;;;31.57;27.07;;;;;;;9.25;100.00;101765.34;5052174;28;20083;-67
2023/09/15 01:03:42;;;;;;;30.77;27.47;;;;;;;9.41;100.00;101792.31;5053282;28;20039;-66
2023/09/15 01:06:13;;;;;;;33.73;29.53;;;;;;;9.35;100.00;101789.34;5053246;28;20568;-65
2023/09/15 01:08:38;;;;;;;33.53;30.03;;;;;;;9.36;100.00;101794.53;5052087;28;20538;-66
2023/09/15 01:11:07;;;;;;;37.80;34.03;;;;;;;9.43;100.00;101818.78;5051830;28;20033;-68
2023/09/15 01:13:33;;;;;;;;;;;;;;;9.44;100.00;101812.50;5053653;28;20091;-67
2023/09/15 01:15:58;;;;;;;30.77;27.20;;;;;;;9.38;100.00;101819.19;5053069;28;20352;-68
2023/09/15 01:18:33;;;;;;;26.53;23.83;;;;;;;9.39;100.00;101812.03;5055144;28;20082;-68
2023/09/15 01:21:13;;;;;;;23.83;21.37;;;;;;;9.40;100.00;101824.38;5052331;28;20040;-66
2023/09/15 01:23:41;;;;;;;18.80;15.87;;;;;;;9.38;100.00;101821.84;5053046;28;20037;-64
2023/09/15 01:26:26;;;;;;;18.60;16.42;;;;;;;9.34;100.00;101814.25;5052966;28;20041;-64
2023/09/15 01:29:19;;;;;;;14.87;13.13;;;;;;;9.40;100.00;101832.34;5051771;28;20437;-66
2023/09/15 01:31:48;;;;;;;13.40;11.63;;;;;;;9.29;100.00;101825.28;5053075;28;20055;-67
2023/09/15 01:34:16;;;;;;;;;;;;;;;9.39;100.00;101826.19;5053664;28;20468;-66
2023/09/15 01:36:43;;;;;;;;;;;;;;;9.31;100.00;101834.81;5053007;28;19915;-66
2023/09/15 01:39:09;;;;;;;11.33;8.20;;;;;;;9.12;100.00;101815.19;5052617;28;19915;-66
2023/09/15 01:41:35;;;;;;;9.50;8.47;;;;;;;9.05;100.00;101806.91;5052777;28;20111;-67
2023/09/15 01:44:03;;;;;;;;;;;;;;;9.26;100.00;101841.47;5051797;28;20118;-67
2023/09/15 01:46:30;;;;;;;8.33;6.80;;;;;;;9.16;100.00;101820.13;5052479;28;20422;-66
2023/09/15 01:48:57;;;;;;;6.80;6.03;;;;;;;9.19;100.00;101830.50;5052127;28;20032;-65
2023/09/15 01:51:23;;;;;;;9.80;6.67;;;;;;;8.95;100.00;101801.47;5052030;28;20029;-67
2023/09/15 01:53:52;;;;;;;6.10;5.50;;;;;;;9.24;100.00;101841.59;5052209;28;20408;-66
2023/09/15 01:56:18;;;;;;;6.47;5.63;;;;;;;9.15;100.00;101833.53;5052643;28;20033;-69
2023/09/15 01:58:44;;;;;;;6.77;6.07;;;;;;;9.05;100.00;101814.88;5052186;28;20464;-66
2023/09/15 02:01:09;;;;;;;9.67;5.53;;;;;;;9.17;100.00;101842.22;5052217;28;20036;-65
2023/09/15 02:03:35;;;;;;;8.37;4.97;;;;;;;9.12;100.00;101831.97;5052241;28;20021;-67
2023/09/15 02:06:04;;;;;;;7.23;5.53;;;;;;;9.19;100.00;101846.44;5051833;28;20049;-65
2023/09/15 02:08:30;;;;;;;6.17;5.47;;;;;;;9.05;100.00;101829.97;5052272;28;20106;-66
2023/09/15 02:10:56;;;;;;;5.80;5.20;;;;;;;9.17;100.00;101850.19;5051125;28;20025;-67
2023/09/15 02:13:21;;;;;;;5.97;5.37;;;;;;;9.09;100.00;101844.69;5052370;28;20064;-68
2023/09/15 02:15:47;;;;;;;8.53;5.10;;;;;;;8.96;100.00;101828.88;5051924;28;20530;-67
2023/09/15 02:18:12;;;;;;;6.47;5.07;;;;;;;9.14;100.00;101858.44;5050797;28;20029;-65
2023/09/15 02:20:37;;;;;;;8.50;4.93;;;;;;;9.12;100.00;101857.72;5051945;28;20025;-65
2023/09/15 02:23:03;;;;;;;7.63;4.97;;;;;;;8.98;100.00;101851.72;5050887;28;20036;-67
2023/09/15 02:25:30;;;;;;;7.47;4.40;;;;;;;9.07;100.00;101873.19;5050458;28;20373;-66
2023/09/15 02:27:57;;;;;;;5.87;5.10;;;;;;;9.08;100.00;101861.59;5051937;28;20106;-67
2023/09/15 02:30:24;;;;;;;4.57;4.17;;;;;;;9.12;100.00;101879.81;5051789;28;20028;-66
2023/09/15 02:32:50;;;;;;;6.93;5.10;;;;;;;8.99;100.00;101850.75;5051710;28;20033;-65
2023/09/15 02:35:15;;;;;;;6.20;5.07;;;;;;;9.17;100.00;101884.75;5051686;28;20601;-66
2023/09/15 02:37:41;;;;;;;5.57;5.00;;;;;;;9.19;100.00;101878.34;5052132;28;20035;-68
2023/09/15 02:40:07;;;;;;;5.57;5.07;;;;;;;8.94;100.00;101841.47;5054148;28;20033;-66
2023/09/15 02:42:35;;;;;;;5.57;4.90;;;;;;;9.17;100.00;101874.13;5052762;28;20025;-68
2023/09/15 02:45:01;;;;;;;8.30;4.97;;;;;;;9.26;100.00;101884.84;5052060;28;20021;-64
2023/09/15 02:47:30;;;;;;;7.70;5.50;;;;;;;9.20;100.00;101876.53;5051661;28;20040;-66
2023/09/15 02:49:55;;;;;;;6.80;5.15;;;;;;;9.31;100.00;101893.28;5051587;28;20028;-67
2023/09/15 02:52:21;;;;;;;10.60;5.67;;;;;;;9.24;100.00;101892.09;5051795;28;20051;-65
2023/09/15 02:54:49;;;;;;;6.33;5.30;;;;;;;9.22;100.00;101891.38;5050425;28;20473;-66
2023/09/15 02:57:15;;;;;;;7.35;5.20;;;;;;;9.31;100.00;101914.56;5051791;28;20419;-65
2023/09/15 02:59:40;;;;;;;5.73;5.13;;;;;;;9.32;100.00;101915.41;5051736;28;20041;-68
2023/09/15 03:02:12;;;;;;;10.73;5.70;;;;;;;9.32;100.00;101916.25;5053279;28;20025;-70
2023/09/15 03:04:38;;;;;;;5.57;4.93;;;;;;;9.25;100.00;101914.19;5055822;28;20025;-64
2023/09/15 03:07:04;;;;;;;8.00;5.23;;;;;;;9.24;100.00;101904.53;5054147;28;20423;-65
2023/09/15 03:09:31;;;;;;;8.77;5.73;;;;;;;9.12;100.00;101895.75;5054953;28;20029;-66
2023/09/15 03:11:57;;;;;;;8.93;6.97;;;;;;;9.15;100.00;101899.97;5054337;28;20371;-68
2023/09/15 03:14:23;;;;;;;7.37;5.17;;;;;;;9.13;100.00;101891.28;5055588;28;20037;-67
2023/09/15 03:16:48;;;;;;;6.43;5.60;;;;;;;9.23;100.00;101921.44;5055492;28;20033;-68
2023/09/15 03:19:13;;;;;;;6.83;5.77;;;;;;;9.20;100.00;101921.72;5054252;28;20024;-64
2023/09/15 03:21:39;;;;;;;9.33;6.50;;;;;;;9.08;100.00;101909.44;5054267;28;20059;-68
2023/09/15 03:24:05;;;;;;;10.00;6.00;;;;;;;8.95;100.00;101901.59;5054187;28;20372;-71
2023/09/15 03:26:30;;;;;;;8.77;6.73;;;;;;;8.83;100.00;101878.69;5055485;28;20043;-67
2023/09/15 03:28:56;;;;;;;8.37;5.93;;;;;;;9.12;100.00;101925.00;5055961;28;20059;-68
2023/09/15 03:31:23;;;;;;;10.77;6.37;;;;;;;8.70;100.00;101868.22;5055126;28;20044;-67
2023/09/15 03:33:48;;;;;;;7.83;6.00;;;;;;;9.25;100.00;101935.47;5055091;28;20443;-64
2023/09/15 03:36:13;;;;;;;7.67;6.20;;;;;;;9.30;100.00;101941.28;5054000;28;20028;-64
2023/09/15 03:38:40;;;;;;;9.43;5.77;;;;;;;9.29;100.00;101935.09;5055103;28;20047;-67
2023/09/15 03:41:06;;;;;;;8.67;6.50;;;;;;;9.38;100.00;101946.78;5053643;28;20028;-67
2023/09/15 03:43:32;;;;;;;10.10;6.27;;;;;;;9.21;100.00;101918.91;5054932;28;20043;-65
2023/09/15 03:45:58;;;;;;;9.40;6.83;;;;;;;9.37;100.00;101947.78;5054775;28;20119;-68
2023/09/15 03:48:24;;;;;;;8.20;6.77;;;;;;;9.25;100.00;101922.16;5054998;28;20071;-67
2023/09/15 03:50:51;;;;;;;9.00;6.80;;;;;;;9.25;100.00;101924.81;5054921;28;20024;-65
2023/09/15 03:53:17;;;;;;;9.73;7.20;;;;;;;8.44;100.00;101790.66;5054887;28;20036;-67
2023/09/15 03:55:43;;;;;;;8.93;7.23;;;;;;;9.42;100.00;101950.03;5054739;28;20029;-67
2023/09/15 03:58:09;;;;;;;11.33;7.07;;;;;;;9.49;100.00;101965.34;5054768;28;20492;-67
2023/09/15 04:00:34;;;;;;;10.33;7.53;;;;;;;9.46;100.00;101949.66;5054532;28;20036;-66
2023/09/15 04:03:00;;;;;;;9.70;7.47;;;;;;;9.22;100.00;101909.97;5054839;28;20060;-65
2023/09/15 04:05:26;;;;;;;8.07;7.27;;;;;;;9.37;100.00;101934.47;5054580;28;20024;-65
2023/09/15 04:07:51;;;;;;;9.13;7.53;;;;;;;9.45;100.00;101950.63;5054984;28;20043;-66
2023/09/15 04:10:17;;;;;;;8.87;6.60;;;;;;;9.51;100.00;101955.44;5053285;28;20423;-66
2023/09/15 04:12:42;;;;;;;13.13;7.50;;;;;;;9.70;100.00;101976.06;5053470;28;20057;-65
2023/09/15 04:15:10;;;;;;;7.63;6.90;;;;;;;9.68;100.00;101956.72;5054402;28;20020;-66
2023/09/15 04:17:36;;;;;;;11.88;7.03;;;;;;;9.82;100.00;101963.53;5053089;28;20028;-66
2023/09/15 04:20:01;;;;;;;10.87;7.10;;;;;;;9.92;100.00;101972.44;5054443;28;20362;-67
2023/09/15 04:22:27;;;;;;;9.17;6.83;;;;;;;9.93;100.00;101963.50;5054098;28;20419;-67
2023/09/15 04:24:52;;;;;;;9.53;6.57;;;;;;;9.91;100.00;101949.47;5052942;28;20021;-67
2023/09/15 04:27:18;;;;;;;9.70;6.23;;;;;;;10.21;100.00;101980.66;5054384;28;20076;-66
2023/09/15 04:30:10;;;;;;;9.80;7.63;;;;;;;10.37;100.00;101997.00;5052960;28;20047;-69
2023/09/15 04:32:36;;;;;;;7.57;6.00;;;;;;;10.45;100.00;101999.03;5052177;28;20102;-66
2023/09/15 04:35:01;;;;;;;6.73;5.60;;;;;;;10.45;100.00;101989.22;5056470;28;20368;-66
2023/09/15 04:37:27;;;;;;;8.40;6.20;;;;;;;10.55;100.00;101992.78;5058104;28;20032;-67
2023/09/15 04:39:54;;;;;;;11.40;6.93;;;;;;;10.68;100.00;102008.53;5058690;28;20383;-67
2023/09/15 04:42:20;;;;;;;7.00;5.60;;;;;;;10.58;100.00;101983.66;5058056;28;20021;-69
2023/09/15 04:44:45;;;;;;;8.07;6.10;;;;;;;10.49;100.00;101957.84;5036866;28;20106;-71
2023/09/15 04:47:12;;;;;;;10.93;7.47;;;;;;;10.92;100.00;102010.03;5057265;28;20079;-68
2023/09/15 04:49:38;;;;;;;8.10;5.83;;;;;;;11.01;100.00;102014.59;5058695;28;20158;-71
2023/09/15 04:52:04;;;;;;;7.57;6.63;;;;;;;11.00;100.00;102012.91;5058753;28;20071;-67
2023/09/15 04:54:29;;;;;;;22.90;6.57;;;;;;;10.90;100.00;101990.66;5058860;28;20346;-68
2023/09/15 04:56:55;;;;;;;11.03;5.63;;;;;;;11.10;100.00;102019.09;5057213;28;20035;-69
2023/09/15 04:59:20;;;;;;;6.07;5.57;;;;;;;11.06;100.00;102013.19;5057626;28;20116;-70
2023/09/15 05:01:46;;;;;;;6.40;5.80;;;;;;;11.13;100.00;102024.16;5055534;28;20098;-68
2023/09/15 05:04:18;;;;;;;9.20;6.00;;;;;;;11.06;100.00;102009.69;5053965;28;20043;-69
2023/09/15 05:06:43;;;;;;;7.20;5.97;;;;;;;11.03;100.00;101996.63;5054457;28;20029;-67
2023/09/15 05:09:10;;;;;;;7.63;5.40;;;;;;;11.17;100.00;102026.41;5054863;28;20461;-70
2023/09/15 05:11:37;;;;;;;12.33;6.23;;;;;;;11.30;100.00;102042.19;5056695;28;20029;-70
2023/09/15 05:14:02;;;;;;;8.43;5.60;;;;;;;10.60;100.00;101925.78;5056448;28;20029;-69
2023/09/15 05:16:28;;;;;;;8.07;5.73;;;;;;;11.32;100.00;102032.22;5053078;28;20033;-69
2023/09/15 05:18:53;;;;;;;9.83;5.70;;;;;;;11.40;100.00;102053.72;5052064;28;20050;-70
2023/09/15 05:21:19;;;;;;;9.17;5.83;;;;;;;11.31;100.00;102038.53;5053242;28;20028;-71
2023/09/15 05:23:44;;;;;;;7.93;5.53;;;;;;;11.31;100.00;102040.34;5053906;28;20021;-70
2023/09/15 05:26:10;;;;;;;7.73;5.90;;;;;;;11.48;100.00;102061.88;5053847;28;20025;-70
2023/09/15 05:28:35;;;;;;;10.27;5.47;;;;;;;11.55;100.00;102072.81;5052469;28;20559;-70
2023/09/15 05:31:02;;;;;;;11.70;6.00;;;;;;;11.55;100.00;102063.97;5035536;28;20048;-69
2023/09/15 05:33:27;;;;;;;8.37;5.47;;;;;;;11.55;100.00;102050.63;5054041;28;20449;-67
2023/09/15 05:35:54;;;;;;;7.93;6.03;;;;;;;11.68;100.00;102056.56;5053527;28;20088;-69
2023/09/15 05:38:20;;;;;;;6.87;5.33;;;;;;;11.75;100.00;102073.72;5054371;28;20064;-66
2023/09/15 05:40:45;;;;;;;8.33;5.93;;;;;;;11.81;100.00;102067.00;5052667;28;20060;-68
2023/09/15 05:43:11;;;;;;;7.17;6.20;;;;;;;11.70;100.00;102054.63;5051465;28;20503;-69
2023/09/15 05:45:36;;;;;;;6.60;5.90;;;;;;;11.79;100.00;102064.47;5052546;28;20385;-66
2023/09/15 05:48:02;;;;;;;7.10;4.80;;;;;;;11.81;100.00;102051.84;5052708;28;20116;-67
2023/09/15 05:50:28;;;;;;;7.40;5.40;;;;;;;11.89;100.00;102070.69;5052499;28;20110;-69
2023/09/15 05:52:53;;;;;;;6.83;6.13;;;;;;;11.75;100.00;102052.38;5054122;28;20102;-72
2023/09/15 05:55:19;;;;;;;11.37;7.40;;;;;;;11.89;100.00;102076.03;5051928;28;20384;-68
2023/09/15 05:57:45;;;;;;;7.87;5.70;;;;;;;11.77;100.00;102067.25;5054445;28;20033;-67
2023/09/15 06:00:10;;;;;;;9.60;6.93;;;;;;;11.80;100.00;102066.16;5055560;28;20025;-65
2023/09/15 06:02:36;;;;;;;8.13;6.17;;;;;;;11.76;100.00;102054.91;5054588;28;20067;-65
2023/09/15 06:05:02;;;;;;;9.13;5.90;;;;;;;11.82;100.00;102074.88;5052851;28;20025;-67
2023/09/15 06:07:28;;;;;;;9.63;5.63;;;;;;;11.70;100.00;102065.28;5053485;28;20433;-68
2023/09/15 06:09:54;;;;;;;10.77;6.43;;;;;;;11.78;100.00;102078.81;5052648;28;20028;-66
2023/09/15 06:12:19;;;;;;;8.63;6.47;;;;;;;11.78;100.00;102086.81;5052877;28;20064;-63
2023/09/15 06:14:45;;;;;;;7.87;5.67;;;;;;;11.72;100.00;102082.00;5052993;28;20053;-66
2023/09/15 06:17:12;;;;;;;8.17;6.43;;;;;;;11.79;100.00;102101.84;5053329;28;20115;-67
2023/09/15 06:19:38;;;;;;;9.27;6.17;;;;;;;11.34;100.00;102024.91;5052421;28;20092;-67
2023/09/15 06:22:04;;;;;;;8.20;6.33;;;;;;;11.79;100.00;102092.00;5052468;28;20028;-67
2023/09/15 06:24:29;;;;;;;9.27;5.83;;;;;;;11.83;100.00;102094.41;5052294;28;20032;-67
2023/09/15 06:26:55;;;;;;;10.80;7.07;;;;;;;11.93;100.00;102109.47;5052486;28;20036;-67
2023/09/15 06:29:21;;;;;;;8.47;5.73;;;;;;;11.93;100.00;102114.81;5052830;28;20040;-65
2023/09/15 06:31:48;;;;;;;8.60;6.77;;;;;;;11.91;100.00;102106.09;5053942;28;20048;-69
2023/09/15 06:34:13;;;;;;;10.20;5.67;;;;;;;11.90;100.00;102109.75;5052303;28;20041;-67
2023/09/15 06:36:39;;;;;;;11.73;6.23;;;;;;;11.81;100.00;102099.88;5051375;28;20492;-66
2023/09/15 06:39:07;;;;;;;7.03;5.93;;;;;;;11.77;100.00;102096.63;5052093;28;20024;-68
2023/09/15 06:41:32;;;;;;;8.93;6.27;;;;;;;11.72;100.00;102080.19;5051786;28;20044;-66
2023/09/15 06:43:59;;;;;;;8.37;6.30;;;;;;;11.85;100.00;102101.28;5052023;28;20025;-65
2023/09/15 06:46:25;;;;;;;7.37;5.37;;;;;;;11.90;100.00;102109.75;5050587;28;20494;-68
2023/09/15 06:48:50;;;;;;;9.57;6.23;;;;;;;11.96;100.00;102119.03;5050969;28;20068;-68
2023/09/15 06:51:16;;;;;;;6.17;5.10;;;;;;;11.99;100.00;102124.94;5051639;28;20035;-66
2023/09/15 06:53:41;;;;;;;7.80;5.67;;;;;;;11.98;100.00;102106.38;5051562;28;20033;-67
2023/09/15 06:56:07;;;;;;;6.20;4.57;;;;;;;12.03;100.00;102104.13;5051930;28;20029;-66
2023/09/15 06:58:32;;;;;;;7.80;5.50;;;;;;;12.06;100.00;102110.03;5051662;28;20156;-69
2023/09/15 07:00:58;;;;;;;7.33;4.60;;;;;;;12.12;100.00;102113.97;5051457;28;20025;-68
2023/09/15 07:03:24;;;;;;;9.17;4.90;;;;;;;12.20;100.00;102113.28;5050817;28;20028;-70
2023/09/15 07:05:50;;;;;;;6.20;4.70;;;;;;;12.29;100.00;102120.44;5031526;28;20439;-68
2023/09/15 07:08:16;;;;;;;6.37;5.67;;;;;;;12.39;100.00;102138.16;5031450;28;20079;-68
2023/09/15 07:10:41;;;;;;;8.00;5.50;;;;;;;12.40;100.00;102130.97;5031726;28;20045;-69
2023/09/15 07:13:07;;;;;;;8.30;4.87;;;;;;;12.32;100.00;102109.47;5031728;28;20021;-70
2023/09/15 07:15:36;;;;;;;8.70;5.40;;;;;;;12.46;100.00;102135.78;5031792;28;20148;-68
2023/09/15 07:18:04;;;;;;;7.17;4.80;;;;;;;12.50;100.00;102145.19;5032354;28;20075;-69
2023/09/15 07:20:30;;;;;;;12.95;6.05;;;;;;;12.56;100.00;102144.63;5031430;28;20025;-73
2023/09/15 07:22:56;;;;;;;8.77;6.23;;;;;;;12.64;100.00;102150.09;5032003;28;20041;-70
2023/09/15 07:25:22;;;;;;;5.33;4.77;;;;;;;12.63;100.00;102139.56;5031774;28;20345;-69
2023/09/15 07:27:50;;;;;;;10.97;6.30;;;;;;;12.74;100.00;102157.28;5031656;28;20470;-67
2023/09/15 07:30:16;;;;;;;5.93;4.30;;;;;;;12.67;100.00;102139.13;5030227;28;20029;-69
2023/09/15 07:32:43;;;;;;;8.40;4.27;;;;;;;12.76;100.00;102149.97;5031404;28;20045;-69
2023/09/15 07:35:12;;;;;;;5.13;4.07;;;;;;;12.33;100.00;102079.09;5031422;28;20092;-69
2023/09/15 07:37:38;;;;;;;4.80;4.23;;;;;;;12.61;100.00;102129.00;5031184;28;20026;-70
2023/09/15 07:40:09;;;;;;;6.07;4.57;;;;;;;12.74;100.00;102146.59;5031494;28;20473;-71
2023/09/15 07:42:35;;;;;;;7.37;4.90;;;;;;;12.65;100.00;102132.22;5031389;28;20369;-72
2023/09/15 07:45:02;;;;;;;4.63;3.83;;;;;;;12.68;100.00;102140.81;5031685;28;20036;-69
2023/09/15 07:47:27;;;;;;;4.63;3.50;;;;;;;12.80;100.00;102151.38;5038012;28;20037;-72
2023/09/15 07:49:53;;;;;;;4.27;3.87;;;;;;;12.67;100.00;102114.22;5034628;28;20021;-72
2023/09/15 07:52:18;;;;;;;4.00;3.60;;;;;;;12.96;100.00;102154.25;5034107;28;20052;-70
2023/09/15 07:54:45;;;;;;;5.20;3.63;;;;;;;12.94;100.00;102153.56;5034760;28;20376;-71
2023/09/15 07:57:11;;;;;;;3.27;2.90;;;;;;;13.00;100.00;102169.88;5050289;28;20029;-71
2023/09/15 07:59:36;;;;;;;6.10;3.60;;;;;;;12.99;100.00;102153.97;5034718;28;20033;-72
2023/09/15 08:02:04;;;;;;;4.47;3.57;;;;;;;13.15;100.00;102172.94;5016782;28;20472;-72
2023/09/15 08:04:30;;;;;;;6.90;3.63;;;;;;;13.20;97.84;102164.53;5044018;28;20017;-71
2023/09/15 08:06:55;;;;;;;7.07;3.20;;;;;;;13.35;97.52;102165.75;5055034;28;20119;-74
2023/09/15 08:09:21;;;;;;;3.17;2.93;;;;;;;13.36;96.95;102158.56;5053485;28;20401;-71
2023/09/15 08:11:46;;;;;;;6.60;3.80;;;;;;;13.35;97.07;102162.22;5054508;28;20578;-65
2023/09/15 08:14:12;;;;;;;4.33;3.33;;;;;;;13.23;98.49;102148.16;5054490;28;20071;-68
2023/09/15 08:16:37;;;;;;;3.77;3.03;;;;;;;13.40;99.55;102173.34;5050387;28;20025;-71
2023/09/15 08:19:03;;;;;;;4.40;3.30;;;;;;;13.45;98.56;102165.69;5035047;28;20056;-74
2023/09/15 08:21:29;;;;;;;4.83;3.33;;;;;;;13.65;97.37;102167.31;5034243;28;20037;-69
2023/09/15 08:23:55;;;;;;;3.63;3.30;;;;;;;13.46;96.37;102130.75;5052840;28;20055;-70
2023/09/15 08:26:20;;;;;;;4.53;3.27;;;;;;;13.79;95.61;102177.50;5035337;28;20037;-70
2023/09/15 08:28:46;;;;;;;2.83;2.63;;;;;;;13.81;93.81;102174.69;5033039;28;20030;-73
2023/09/15 08:31:11;;;;;;;5.47;2.80;;;;;;;13.83;94.06;102170.00;5034252;28;20384;-71
2023/09/15 08:33:37;;;;;;;2.57;2.33;;;;;;;14.02;94.41;102172.59;5034577;28;20091;-71
2023/09/15 08:36:05;;;;;;;4.17;2.70;;;;;;;14.34;93.31;102193.50;5035664;28;20033;-73
2023/09/15 08:38:31;;;;;;;;;;;;;;;14.50;93.05;102199.09;5034878;28;20415;-73
2023/09/15 08:41:03;;;;;;;2.40;2.20;;;;;;;14.46;90.29;102189.66;5033962;28;19909;-69
2023/09/15 08:43:29;;;;;;;3.20;2.07;;;;;;;14.33;87.73;102181.13;5066076;28;20032;-70
2023/09/15 08:45:55;;;;;;;2.67;2.47;;;;;;;14.36;88.74;102207.59;5033859;28;20616;-69
2023/09/15 08:48:27;;;;;;;2.20;2.00;;;;;;;14.24;87.74;102193.59;5033699;28;20469;-71
2023/09/15 08:50:55;;;;;;;3.23;2.07;;;;;;;14.29;88.79;102203.84;5034028;28;20408;-74
2023/09/15 08:53:21;;;;;;;4.07;3.00;;;;;;;14.29;87.44;102211.91;5034546;28;20022;-71
2023/09/15 08:55:47;;;;;;;1.70;1.60;;;;;;;14.32;87.77;102200.88;5033749;28;20155;-74
2023/09/15 08:58:13;;;;;;;3.03;2.57;;;;;;;14.51;89.12;102199.94;5033673;28;20040;-71
2023/09/15 09:00:39;;;;;;;3.63;2.40;;;;;;;14.69;87.75;102198.06;5044083;28;20024;-73
2023/09/15 09:03:04;;;;;;;3.63;2.40;;;;;;;14.78;86.55;102207.03;5051211;28;20077;-69
2023/09/15 09:05:31;;;;;;;2.63;2.23;;;;;;;14.55;84.71;102186.06;5053380;28;20082;-70
2023/09/15 09:07:59;;;;;;;4.70;2.47;;;;;;;14.51;85.02;102214.16;5053870;28;20033;-70
2023/09/15 09:10:25;;;;;;;3.05;1.92;;;;;;;14.43;85.45;102200.66;5052672;28;20029;-70
2023/09/15 09:12:50;;;;;;;3.13;2.70;;;;;;;14.54;85.92;102216.53;5052866;28;20036;-69
2023/09/15 09:15:17;;;;;;;2.30;2.10;;;;;;;14.58;84.64;102217.06;5053254;28;20119;-69
2023/09/15 09:17:43;;;;;;;4.87;2.37;;;;;;;14.68;85.77;102211.63;5053371;28;20130;-72
2023/09/15 09:20:22;;;;;;;2.17;2.03;;;;;;;14.85;84.74;102214.28;5053531;28;20055;-69
2023/09/15 09:22:47;;;;;;;4.33;1.90;;;;;;;15.08;80.85;102208.44;5053260;28;20056;-70
2023/09/15 09:25:13;;;;;;;2.60;2.23;;;;;;;15.40;78.79;102219.38;5053114;28;20067;-71
2023/09/15 09:27:38;;;;;;;3.03;2.10;;;;;;;15.57;75.91;102219.47;5052722;28;20119;-72
2023/09/15 09:30:49;;;;;;;2.43;2.00;;;;;;;15.70;77.51;102220.75;5053096;28;20033;-77
2023/09/15 09:33:22;;;;;;;2.90;1.70;;;;;;;15.43;75.95;102220.91;5053760;28;20045;-70
2023/09/15 09:35:48;;;;;;;3.57;1.87;;;;;;;15.24;76.30;102223.78;5053867;28;20039;-69
2023/09/15 09:38:15;;;;;;;2.20;1.73;;;;;;;15.11;74.82;102235.78;5053309;28;20024;-68
2023/09/15 09:40:40;;;;;;;3.50;1.57;;;;;;;15.07;76.22;102225.53;5052802;28;20093;-68
2023/09/15 09:43:06;;;;;;;3.37;2.37;;;;;;;15.00;75.63;102200.31;5052839;28;20464;-67
2023/09/15 09:45:32;;;;;;;5.10;2.33;;;;;;;15.27;76.86;102236.91;5052536;28;20025;-69
2023/09/15 09:48:00;;;;;;;5.23;2.47;;;;;;;15.25;75.87;102226.31;5052495;28;20461;-69
2023/09/15 09:50:28;;;;;;;4.93;1.95;;;;;;;15.30;75.95;102250.00;5052517;28;20469;-70
2023/09/15 09:52:55;;;;;;;5.18;2.08;;;;;;;15.31;74.23;102252.53;5052577;28;20040;-70
2023/09/15 09:55:21;;;;;;;4.37;2.07;;;;;;;15.29;74.39;102256.38;5051495;28;20025;-70
2023/09/15 09:57:47;;;;;;;2.33;2.00;;;;;;;15.13;74.78;102243.69;5051580;28;20087;-72
2023/09/15 10:00:21;;;;;;;1.70;1.60;;;;;;;15.07;75.37;102244.31;5053161;28;20024;-73
2023/09/15 10:02:47;;;;;;;5.30;2.33;;;;;;;14.81;76.21;102233.53;5052948;28;20040;-73
2023/09/15 10:05:13;;;;;;;4.23;2.17;;;;;;;14.71;77.28;102240.81;5056995;28;20088;-70
2023/09/15 10:07:38;;;;;;;1.73;1.63;;;;;;;14.61;76.10;102253.47;5053413;28;20051;-69
2023/09/15 10:10:06;;;;;;;3.37;1.80;;;;;;;14.39;77.88;102239.47;5051332;28;20057;-67
2023/09/15 10:12:33;;;;;;;4.97;2.15;;;;;;;14.26;78.10;102255.06;5053314;28;20040;-71
2023/09/15 10:14:59;;;;;;;2.27;1.57;;;;;;;14.14;79.47;102250.91;5052191;28;20029;-68
2023/09/15 10:17:26;;;;;;;4.13;1.90;;;;;;;14.11;80.85;102257.41;5052295;28;20025;-67
2023/09/15 10:19:53;;;;;;;2.00;1.80;;;;;;;14.04;81.08;102239.41;5052416;28;20048;-69
2023/09/15 10:22:19;;;;;;;2.77;2.10;;;;;;;14.17;81.36;102250.63;5050533;28;20021;-68
2023/09/15 10:24:47;;;;;;;2.03;1.83;;;;;;;14.40;80.16;102246.50;5052951;28;20051;-66
2023/09/15 10:27:14;;;;;;;3.78;2.78;;;;;;;14.80;79.21;102261.38;5055793;28;20412;-69
2023/09/15 10:29:44;;;;;;;3.73;2.90;;;;;;;15.09;77.41;102242.31;5056431;28;20373;-67
2023/09/15 10:32:15;;;;;;;3.43;2.53;;;;;;;15.46;71.70;102244.75;5053444;28;20053;-68
2023/09/15 10:34:40;;;;;;;1.70;1.60;;;;;;;15.82;70.22;102250.00;5051903;28;20132;-69
2023/09/15 10:37:09;;;;;;;2.10;1.83;;;;;;;16.24;68.81;102255.41;5052822;28;20068;-68
2023/09/15 10:39:40;;;;;;;5.43;1.90;;;;;;;16.54;67.76;102260.16;5054200;28;20027;-68
2023/09/15 10:42:09;;;;;;;16.03;3.33;;;;;;;16.26;66.76;102216.59;5052718;28;20029;-72
2023/09/15 10:44:35;;;;;;;2.10;1.80;;;;;;;16.58;66.46;102261.53;5051836;28;20033;-71
2023/09/15 10:47:01;;;;;;;2.97;2.23;;;;;;;16.65;67.57;102280.53;5050525;28;20420;-69
2023/09/15 10:49:26;;;;;;;3.37;1.70;;;;;;;16.59;67.86;102276.66;5051866;28;20032;-71
2023/09/15 10:51:54;;;;;;;5.73;1.80;;;;;;;16.20;69.92;102295.19;5051727;28;20037;-69
2023/09/15 10:54:19;;;;;;;2.03;1.83;;;;;;;15.75;71.37;102285.56;5051835;28;20083;-72
2023/09/15 10:56:47;;;;;;;4.53;1.73;;;;;;;15.34;72.57;102291.66;5051940;28;20029;-69
2023/09/15 10:59:14;;;;;;;2.90;2.40;;;;;;;15.11;74.96;102281.41;5051532;28;20047;-70
2023/09/15 11:01:44;;;;;;;2.10;1.90;;;;;;;15.15;74.89;102280.09;5051653;28;20484;-72
2023/09/15 11:04:17;;;;;;;3.93;1.90;;;;;;;15.27;70.47;102287.91;5051705;28;20024;-69
2023/09/15 11:06:51;;;;;;;2.00;1.77;;;;;;;15.36;69.33;102278.91;5050228;28;20029;-70
2023/09/15 11:09:17;;;;;;;2.07;1.73;;;;;;;15.41;66.92;102281.97;5051589;28;20429;-71
2023/09/15 11:11:47;;;;;;;2.20;1.60;;;;;;;15.50;64.56;102287.22;5051928;28;20017;-70
2023/09/15 11:14:19;;;;;;;4.20;1.87;;;;;;;15.48;65.83;102280.34;5051809;28;20032;-70
2023/09/15 11:16:45;;;;;;;3.90;1.87;;;;;;;15.58;66.04;102289.16;5051372;28;20107;-72
2023/09/15 11:19:15;;;;;;;1.80;1.53;;;;;;;15.24;63.52;102264.06;5048232;28;20027;-70